Time;durP1;ratioP1;P1;durP2;ratioP2;P2;SDS_P1;SDS_P2;PMS_P1;PMS_P2;Temp;Humidity;BMP_temperature;BMP_pressure;BME280_temperature;BME280_humidity;BME280_pressure;Samples;Min_cycle;Max_cycle;Signal;HPM_P1;HPM_P2
2022/04/24 00:00:58;;;;;;;;;;;12.40;97.70;;;;;;5009088;28;19941;-83
2022/04/24 00:03:26;;;;;;;;;;;12.40;97.90;;;;;;5023581;28;19936;-83
2022/04/24 00:05:54;;;;;;;;;;;12.40;97.70;;;;;;5007127;28;19936;-83
2022/04/24 00:08:26;;;;;;;;;;;12.30;97.90;;;;;;5008306;28;19926;-82
2022/04/24 00:11:23;;;;;;;;;;;12.40;97.80;;;;;;5008721;28;19925;-82
2022/04/24 00:13:52;;;;;;;;;;;12.30;97.70;;;;;;5007062;28;19936;-82
2022/04/24 00:16:20;;;;;;;;;;;12.30;97.70;;;;;;5017229;28;19926;-82
2022/04/24 00:18:49;;;;;;;;;;;12.30;97.60;;;;;;5019337;28;19940;-86
2022/04/24 00:21:17;;;;;;;;;;;10.60;97.20;;;;;;5004697;28;20581;-84
2022/04/24 00:23:46;;;;;;;;;;;12.30;97.60;;;;;;4988534;28;19926;-82
2022/04/24 00:26:14;;;;;;;;;;;12.30;97.60;;;;;;4986630;28;19933;-82
2022/04/24 00:28:43;;;;;;;;;;;10.90;97.40;;;;;;4993000;28;19930;-83
2022/04/24 00:31:11;;;;;;;;;;;12.80;98.30;;;;;;5021809;28;19936;-82
2022/04/24 00:33:39;;;;;;;;;;;12.30;97.90;;;;;;5004828;28;19932;-83
2022/04/24 00:36:07;;;;;;;;;;;12.30;98.40;;;;;;5007308;28;19932;-82
2022/04/24 00:38:36;;;;;;;;;;;12.20;98.10;;;;;;5007637;28;19926;-83
2022/04/24 00:41:04;;;;;;;;;;;12.30;98.10;;;;;;5022052;28;19930;-81
2022/04/24 00:43:32;;;;;;;;;;;12.20;98.20;;;;;;5022770;28;19926;-82
2022/04/24 00:46:43;;;;;;;;;;;13.90;99.00;;;;;;5005327;28;19932;-82
2022/04/24 00:49:13;;;;;;;;;;;12.00;98.00;;;;;;5005485;28;19933;-83
2022/04/24 00:51:43;;;;;;;;;;;12.20;98.50;;;;;;5022065;28;20422;-82
2022/04/24 00:54:11;;;;;;;;;;;12.20;98.10;;;;;;5021705;28;20212;-83
2022/04/24 00:56:40;;;;;;;;;;;12.30;98.40;;;;;;5006193;28;19937;-82
2022/04/24 00:59:10;;;;;;;;;;;12.30;98.20;;;;;;5005244;28;19926;-82
2022/04/24 01:01:41;;;;;;;;;;;12.20;98.20;;;;;;5006203;28;19926;-83
2022/04/24 01:04:10;;;;;;;;;;;12.20;98.40;;;;;;5022206;28;19932;-82
2022/04/24 01:06:43;;;;;;;;;;;13.60;98.80;;;;;;5021423;28;19925;-81
2022/04/24 01:09:14;;;;;;;;;;;12.40;98.30;;;;;;5004685;28;19932;-82
2022/04/24 01:11:43;;;;;;;;;;;11.90;98.10;;;;;;5008338;28;19936;-82
2022/04/24 01:14:11;;;;;;;;;;;11.90;98.30;;;;;;5007091;28;20322;-82
2022/04/24 01:16:39;;;;;;;;;;;11.80;98.90;;;;;;5021443;28;19934;-85
2022/04/24 01:19:09;;;;;;;;;;;12.00;98.70;;;;;;4994180;28;19926;-82
2022/04/24 01:21:57;;;;;;;;;;;11.70;98.40;;;;;;5022575;28;20110;-82
2022/04/24 01:24:27;;;;;;;;;;;11.60;98.60;;;;;;5022310;28;19937;-81
2022/04/24 01:26:56;;;;;;;;;;;10.00;98.30;;;;;;5021503;28;19922;-82
2022/04/24 01:29:24;;;;;;;;;;;11.50;98.50;;;;;;5005786;28;19930;-83
2022/04/24 01:31:53;;;;;;;;;;;11.50;99.00;;;;;;5022956;28;20192;-82
2022/04/24 01:34:21;;;;;;;;;;;11.60;98.60;;;;;;5007034;28;20446;-80
2022/04/24 01:36:49;;;;;;;;;;;11.40;99.20;;;;;;5006984;28;19936;-84
2022/04/24 01:39:19;;;;;;;;;;;11.40;98.70;;;;;;5004844;28;19929;-82
2022/04/24 01:41:47;;;;;;;;;;;11.20;98.70;;;;;;5022065;28;19932;-83
2022/04/24 01:44:15;;;;;;;;;;;11.30;98.90;;;;;;5008034;28;19941;-82
2022/04/24 01:46:44;;;;;;;;;;;11.10;99.40;;;;;;5027931;28;19926;-83
2022/04/24 01:49:21;;;;;;;;;;;9.40;98.80;;;;;;5010966;28;20391;-83
2022/04/24 01:51:49;;;;;;;;;;;10.70;99.00;;;;;;5011851;28;19932;-83
2022/04/24 01:54:17;;;;;;;;;;;11.00;99.60;;;;;;5014320;28;19925;-83
2022/04/24 01:56:47;;;;;;;;;;;11.10;99.90;;;;;;5013955;28;19925;-83
2022/04/24 01:59:15;;;;;;;;;;;11.00;99.40;;;;;;5005339;28;19929;-82
2022/04/24 02:01:44;;;;;;;;;;;10.80;99.30;;;;;;5000496;28;19936;-83
2022/04/24 02:04:13;;;;;;;;;;;10.80;99.40;;;;;;5016206;28;19932;-83
2022/04/24 02:07:12;;;;;;;;;;;10.70;99.80;;;;;;5001420;28;19926;-82
2022/04/24 02:09:43;;;;;;;;;;;10.70;99.40;;;;;;5013813;28;19948;-83
2022/04/24 02:12:14;;;;;;;;;;;10.80;99.90;;;;;;5013496;28;19925;-82
2022/04/24 02:14:44;;;;;;;;;;;9.10;99.50;;;;;;5031891;28;19929;-83
2022/04/24 02:17:37;;;;;;;;;;;10.50;99.90;;;;;;5005973;28;19932;-82
2022/04/24 02:20:11;;;;;;;;;;;10.50;99.90;;;;;;5012837;28;19929;-83
2022/04/24 02:22:42;;;;;;;;;;;10.70;99.90;;;;;;5011680;28;19933;-83
2022/04/24 02:28:28;;;;;;;;;;;10.30;99.90;;;;;;5024565;28;19929;-83
2022/04/24 02:30:56;;;;;;;;;;;10.40;99.90;;;;;;5030005;28;19926;-82
2022/04/24 02:33:25;;;;;;;;;;;10.30;99.90;;;;;;4990192;28;19925;-83
2022/04/24 02:35:53;;;;;;;;;;;10.20;99.90;;;;;;5012784;28;20362;-83
2022/04/24 02:38:22;;;;;;;;;;;10.20;99.90;;;;;;5030415;28;19929;-82
2022/04/24 02:40:50;;;;;;;;;;;10.20;99.90;;;;;;5028734;28;19949;-84
2022/04/24 02:43:18;;;;;;;;;;;10.10;99.90;;;;;;4996692;28;19932;-83
2022/04/24 02:45:48;;;;;;;;;;;10.10;99.90;;;;;;4996046;28;19925;-81
2022/04/24 02:48:22;;;;;;;;;;;10.10;99.90;;;;;;5030074;28;19929;-82
2022/04/24 02:50:57;;;;;;;;;;;10.10;99.90;;;;;;5013112;28;20337;-82
2022/04/24 02:53:27;;;;;;;;;;;10.70;99.90;;;;;;5008993;28;19930;-82
2022/04/24 02:55:56;;;;;;;;;;;10.00;99.90;;;;;;4977417;28;19926;-82
2022/04/24 02:58:25;;;;;;;;;;;8.40;99.90;;;;;;5025392;28;19930;-81
2022/04/24 03:00:56;;;;;;;;;;;10.10;99.90;;;;;;5010137;28;19945;-81
2022/04/24 03:03:25;;;;;;;;;;;9.90;99.90;;;;;;4994043;28;19930;-83
2022/04/24 03:05:54;;;;;;;;;;;10.00;99.90;;;;;;5009367;28;19925;-82
2022/04/24 03:08:24;;;;;;;;;;;9.90;99.90;;;;;;5010121;28;19933;-82
2022/04/24 03:10:52;;;;;;;;;;;9.90;99.90;;;;;;5011300;28;19929;-82
2022/04/24 03:13:24;;;;;;;;;;;9.90;99.90;;;;;;5025352;28;19925;-82
2022/04/24 03:15:55;;;;;;;;;;;10.00;99.90;;;;;;5025816;28;19936;-81
2022/04/24 03:18:23;;;;;;;;;;;9.80;99.90;;;;;;5025385;28;20645;-82
2022/04/24 03:20:51;;;;;;;;;;;9.80;99.90;;;;;;4993032;28;19932;-82
2022/04/24 03:23:20;;;;;;;;;;;9.90;99.90;;;;;;5010490;28;19936;-81
2022/04/24 03:25:50;;;;;;;;;;;9.90;99.90;;;;;;5008844;28;19926;-82
2022/04/24 03:28:18;;;;;;;;;;;9.70;99.90;;;;;;4993033;28;19930;-83
2022/04/24 03:30:46;;;;;;;;;;;9.70;99.90;;;;;;5025311;28;19959;-82
2022/04/24 03:33:12;;;;;;;;;;;9.70;99.90;;;;;;5025396;28;19921;-82
2022/04/24 03:35:42;;;;;;;;;;;9.60;99.90;;;;;;5008510;28;19936;-82
2022/04/24 03:38:14;;;;;;;;;;;9.70;99.90;;;;;;5008569;28;20244;-82
2022/04/24 03:40:45;;;;;;;;;;;9.60;99.90;;;;;;5025145;28;19926;-83
2022/04/24 03:43:13;;;;;;;;;;;10.10;99.90;;;;;;5007614;28;19926;-83
2022/04/24 03:45:41;;;;;;;;;;;9.60;99.90;;;;;;5024536;28;19926;-82
2022/04/24 03:48:10;;;;;;;;;;;9.60;99.90;;;;;;5024540;28;19925;-82
2022/04/24 03:50:41;;;;;;;;;;;9.60;99.90;;;;;;4991890;28;19930;-81
2022/04/24 03:53:12;;;;;;;;;;;9.60;99.90;;;;;;5020968;28;19925;-83
2022/04/24 03:55:42;;;;;;;;;;;9.60;99.90;;;;;;5029437;28;20421;-82
2022/04/24 03:58:18;;;;;;;;;;;9.70;99.90;;;;;;5010674;28;19936;-82
2022/04/24 04:01:18;;;;;;;;;;;9.60;99.90;;;;;;4653939;28;10001340;-83
2022/04/24 04:03:49;;;;;;;;;;;9.50;99.90;;;;;;5027801;28;20383;-82
2022/04/24 04:06:18;;;;;;;;;;;9.70;99.90;;;;;;5027862;28;19939;-82
2022/04/24 04:08:46;;;;;;;;;;;9.50;99.90;;;;;;5027667;28;19928;-82
2022/04/24 04:11:15;;;;;;;;;;;9.50;99.90;;;;;;4994301;28;19952;-82
2022/04/24 04:13:44;;;;;;;;;;;9.60;99.90;;;;;;5028734;28;19933;-82
2022/04/24 04:16:15;;;;;;;;;;;9.40;99.90;;;;;;5010991;28;19935;-81
2022/04/24 04:18:54;;;;;;;;;;;9.40;99.90;;;;;;5028665;28;19936;-83
2022/04/24 04:21:23;;;;;;;;;;;9.40;99.90;;;;;;4994895;28;19935;-83
2022/04/24 04:23:52;;;;;;;;;;;11.30;99.90;;;;;;5011743;28;19936;-83
2022/04/24 04:26:21;;;;;;;;;;;9.30;99.90;;;;;;5014708;28;19925;-82
2022/04/24 04:28:54;;;;;;;;;;;9.40;99.90;;;;;;5019936;28;19935;-82
2022/04/24 04:31:51;;;;;;;;;;;9.00;99.90;;;;;;5013556;28;20399;-82
2022/04/24 04:34:21;;;;;;;;;;;9.30;99.90;;;;;;4998592;28;19929;-82
2022/04/24 04:36:49;;;;;;;;;;;9.20;99.90;;;;;;5012551;28;19929;-82
2022/04/24 04:39:20;;;;;;;;;;;9.10;99.90;;;;;;4996930;28;19914;-81
2022/04/24 04:41:47;;;;;;;;;;;9.10;99.90;;;;;;5028789;28;20403;-81
2022/04/24 04:44:16;;;;;;;;;;;8.60;99.90;;;;;;5030060;28;19925;-82
2022/04/24 04:46:44;;;;;;;;;;;9.30;99.90;;;;;;5026150;28;19933;-82
2022/04/24 04:49:12;;;;;;;;;;;9.10;99.90;;;;;;5025160;28;20347;-82
2022/04/24 04:51:40;;;;;;;;;;;9.00;99.90;;;;;;5009160;28;19924;-82
2022/04/24 04:54:08;;;;;;;;;;;9.00;99.90;;;;;;4988945;28;19932;-82
2022/04/24 04:56:39;;;;;;;;;;;9.00;99.90;;;;;;4990052;28;19922;-82
2022/04/24 04:59:13;;;;;;;;;;;9.10;99.90;;;;;;5004229;28;19937;-81
2022/04/24 05:01:42;;;;;;;;;;;9.00;99.90;;;;;;5004564;28;19926;-82
2022/04/24 05:04:15;;;;;;;;;;;9.00;99.90;;;;;;4989908;28;19936;-82
2022/04/24 05:06:44;;;;;;;;;;;9.00;99.90;;;;;;4990138;28;19932;-82
2022/04/24 05:09:12;;;;;;;;;;;9.30;99.90;;;;;;4988040;28;19936;-82
2022/04/24 05:11:40;;;;;;;;;;;9.00;99.90;;;;;;5003448;28;19937;-82
2022/04/24 05:14:12;;;;;;;;;;;9.00;99.90;;;;;;4984353;28;20316;-82
2022/04/24 05:16:41;;;;;;;;;;;9.00;99.90;;;;;;4998929;28;19933;-82
2022/04/24 05:19:09;;;;;;;;;;;9.20;99.90;;;;;;4987654;28;19936;-81
2022/04/24 05:21:38;;;;;;;;;;;9.00;99.90;;;;;;4974013;29;19933;-82
2022/04/24 05:24:07;;;;;;;;;;;9.00;99.90;;;;;;5004350;28;19927;-81
2022/04/24 05:26:35;;;;;;;;;;;9.10;99.90;;;;;;5004286;28;19933;-82
2022/04/24 05:29:04;;;;;;;;;;;9.10;99.90;;;;;;4985501;28;19926;-82
2022/04/24 05:31:33;;;;;;;;;;;9.20;99.90;;;;;;5008147;28;19933;-82
2022/04/24 05:34:10;;;;;;;;;;;9.10;99.90;;;;;;4990088;28;19933;-83
2022/04/24 05:36:39;;;;;;;;;;;9.10;99.90;;;;;;4992784;28;19932;-83
2022/04/24 05:39:08;;;;;;;;;;;9.10;99.90;;;;;;4992327;28;19932;-82
2022/04/24 05:41:38;;;;;;;;;;;9.10;99.90;;;;;;4991645;28;19928;-83
2022/04/24 05:44:07;;;;;;;;;;;9.10;99.90;;;;;;4994772;28;19941;-81
2022/04/24 05:46:37;;;;;;;;;;;9.50;99.90;;;;;;5016699;28;19910;-82
2022/04/24 05:49:09;;;;;;;;;;;9.30;99.90;;;;;;5008212;28;19926;-82
2022/04/24 05:51:49;;;;;;;;;;;9.30;99.90;;;;;;5006548;28;19936;-82
2022/04/24 05:54:23;;;;;;;;;;;9.40;99.90;;;;;;5011231;28;19930;-83
2022/04/24 05:56:53;;;;;;;;;;;9.50;99.90;;;;;;5011324;28;19929;-82
2022/04/24 05:59:24;;;;;;;;;;;9.50;99.90;;;;;;5011114;28;19930;-83
2022/04/24 06:01:54;;;;;;;;;;;10.10;99.90;;;;;;5027673;28;19932;-82
2022/04/24 06:04:24;;;;;;;;;;;9.70;99.90;;;;;;5012148;28;19925;-84
2022/04/24 06:06:53;;;;;;;;;;;9.90;99.90;;;;;;5012071;28;20311;-81
2022/04/24 06:09:30;;;;;;;;;;;9.80;99.90;;;;;;5011010;28;19925;-83
2022/04/24 06:12:13;;;;;;;;;;;10.10;99.90;;;;;;5026958;28;19940;-82
2022/04/24 06:14:42;;;;;;;;;;;10.00;99.90;;;;;;5026922;28;19914;-83
2022/04/24 06:17:11;;;;;;;;;;;10.30;99.90;;;;;;4994428;28;19940;-82
2022/04/24 06:19:42;;;;;;;;;;;10.20;99.90;;;;;;5011153;28;19939;-82
2022/04/24 06:22:10;;;;;;;;;;;10.30;99.90;;;;;;5012605;28;19926;-82
2022/04/24 06:24:40;;;;;;;;;;;9.80;99.90;;;;;;5011960;28;19926;-82
2022/04/24 06:27:10;;;;;;;;;;;10.60;99.90;;;;;;5026353;28;19932;-82
2022/04/24 06:29:40;;;;;;;;;;;10.60;99.90;;;;;;5004875;28;19945;-82
2022/04/24 06:32:12;;;;;;;;;;;10.70;99.90;;;;;;5011581;28;19930;-83
2022/04/24 06:34:43;;;;;;;;;;;10.80;99.90;;;;;;5011177;28;20426;-82
2022/04/24 06:37:17;;;;;;;;;;;10.90;99.90;;;;;;5007898;28;19930;-83
2022/04/24 06:39:45;;;;;;;;;;;10.90;99.90;;;;;;4994325;28;19926;-82
2022/04/24 06:42:17;;;;;;;;;;;11.00;99.90;;;;;;5022817;28;19940;-83
2022/04/24 06:44:48;;;;;;;;;;;11.10;99.90;;;;;;4998831;28;19926;-83
2022/04/24 06:47:19;;;;;;;;;;;12.10;99.90;;;;;;5011369;28;19933;-83
2022/04/24 06:49:57;;;;;;;;;;;11.20;99.90;;;;;;4990865;28;19918;-83
2022/04/24 06:52:26;;;;;;;;;;;11.20;99.90;;;;;;5015295;28;19921;-83
2022/04/24 06:54:58;;;;;;;;;;;11.20;99.90;;;;;;5031199;28;19932;-82
2022/04/24 06:57:27;;;;;;;;;;;11.70;99.90;;;;;;5031217;28;19936;-83
2022/04/24 06:59:55;;;;;;;;;;;11.40;99.90;;;;;;5014920;28;19925;-83
2022/04/24 07:02:30;;;;;;;;;;;11.20;99.90;;;;;;5032619;28;19930;-83
2022/04/24 07:05:02;;;;;;;;;;;11.50;99.90;;;;;;4997062;28;19934;-83
2022/04/24 07:07:36;;;;;;;;;;;11.40;99.90;;;;;;5014426;28;19929;-83
2022/04/24 07:10:07;;;;;;;;;;;11.80;99.90;;;;;;5012770;28;19924;-83
2022/04/24 07:12:53;;;;;;;;;;;11.50;99.90;;;;;;5012665;28;19952;-83
2022/04/24 07:15:23;;;;;;;;;;;10.40;99.90;;;;;;5012877;28;19918;-83
2022/04/24 07:17:53;;;;;;;;;;;10.70;99.90;;;;;;5016039;28;19933;-83
2022/04/24 07:20:22;;;;;;;;;;;12.20;99.90;;;;;;5015609;28;19955;-83
2022/04/24 07:22:51;;;;;;;;;;;11.70;99.90;;;;;;5015039;28;19917;-83
2022/04/24 07:25:21;;;;;;;;;;;11.90;99.90;;;;;;5029443;28;20206;-83
2022/04/24 07:27:50;;;;;;;;;;;12.00;99.90;;;;;;5029806;28;19930;-84
2022/04/24 07:30:20;;;;;;;;;;;12.10;99.90;;;;;;4981117;28;19925;-84
2022/04/24 07:32:54;;;;;;;;;;;11.90;99.90;;;;;;5029996;28;19932;-82
2022/04/24 07:35:29;;;;;;;;;;;11.90;99.90;;;;;;5030390;28;19925;-85
2022/04/24 07:38:02;;;;;;;;;;;12.10;99.90;;;;;;4996560;28;19921;-83
2022/04/24 07:40:33;;;;;;;;;;;10.90;99.90;;;;;;5030228;28;19925;-83
2022/04/24 07:43:12;;;;;;;;;;;12.10;99.90;;;;;;5028318;28;19926;-84
2022/04/24 07:45:47;;;;;;;;;;;13.60;99.90;;;;;;5026759;28;19944;-83
2022/04/24 07:48:17;;;;;;;;;;;12.40;99.90;;;;;;5011657;28;19933;-82
2022/04/24 07:50:51;;;;;;;;;;;12.50;99.90;;;;;;5021179;28;19925;-83
2022/04/24 07:53:21;;;;;;;;;;;12.30;99.90;;;;;;5006913;28;19930;-83
2022/04/24 07:55:51;;;;;;;;;;;12.30;99.90;;;;;;5006690;28;19926;-84
2022/04/24 07:58:23;;;;;;;;;;;12.50;99.90;;;;;;4991054;28;19926;-83
2022/04/24 08:00:51;;;;;;;;;;;11.10;99.90;;;;;;5022126;28;19914;-83
2022/04/24 08:03:20;;;;;;;;;;;12.50;99.90;;;;;;5004296;28;19945;-83
2022/04/24 08:05:50;;;;;;;;;;;12.60;99.90;;;;;;4967787;28;19937;-84
2022/04/24 08:08:22;;;;;;;;;;;12.70;99.90;;;;;;4984070;28;19933;-83
2022/04/24 08:10:51;;;;;;;;;;;12.80;99.90;;;;;;4983319;28;19926;-83
2022/04/24 08:13:20;;;;;;;;;;;12.80;99.90;;;;;;4935045;29;19933;-84
2022/04/24 08:15:49;;;;;;;;;;;12.80;99.90;;;;;;4985726;28;19926;-82
2022/04/24 08:18:19;;;;;;;;;;;12.80;99.90;;;;;;4987591;28;19930;-82
2022/04/24 08:20:49;;;;;;;;;;;13.00;99.90;;;;;;5003258;28;19932;-85
2022/04/24 08:23:20;;;;;;;;;;;13.10;99.90;;;;;;4988222;28;19930;-83
2022/04/24 08:25:50;;;;;;;;;;;13.10;99.60;;;;;;5004399;28;19928;-83
2022/04/24 08:28:18;;;;;;;;;;;13.10;99.50;;;;;;4997981;28;19929;-84
2022/04/24 08:30:49;;;;;;;;;;;13.30;99.70;;;;;;4999121;28;19929;-83
2022/04/24 08:33:18;;;;;;;;;;;13.40;99.70;;;;;;4991801;28;19930;-83
2022/04/24 08:35:50;;;;;;;;;;;13.40;99.20;;;;;;4968917;28;19926;-84
2022/04/24 08:38:18;;;;;;;;;;;13.50;99.00;;;;;;4985197;28;19936;-83
2022/04/24 08:40:47;;;;;;;;;;;13.60;99.00;;;;;;4985551;28;19949;-84
2022/04/24 08:43:18;;;;;;;;;;;12.20;98.30;;;;;;4986663;28;19937;-84
2022/04/24 08:45:49;;;;;;;;;;;13.70;98.90;;;;;;4990623;28;19929;-84
2022/04/24 08:48:19;;;;;;;;;;;13.30;98.50;;;;;;4996341;28;19918;-84
2022/04/24 08:50:50;;;;;;;;;;;13.90;98.50;;;;;;4984351;28;19931;-84
2022/04/24 08:53:20;;;;;;;;;;;15.20;97.80;;;;;;4632926;28;10000165;-82
2022/04/24 08:55:52;;;;;;;;;;;14.20;98.10;;;;;;5017984;28;19936;-81
2022/04/24 08:58:22;;;;;;;;;;;14.30;97.20;;;;;;4985013;28;19926;-83
2022/04/24 09:00:57;;;;;;;;;;;14.20;97.80;;;;;;5020218;28;19937;-85
2022/04/24 09:03:32;;;;;;;;;;;15.00;97.60;;;;;;4989560;28;19926;-83
2022/04/24 09:06:02;;;;;;;;;;;14.40;97.30;;;;;;4999201;28;20382;-85
2022/04/24 09:08:35;;;;;;;;;;;14.50;96.50;;;;;;5007725;28;19929;-83
2022/04/24 09:11:25;;;;;;;;;;;14.60;96.80;;;;;;4971200;28;19926;-85
2022/04/24 09:14:15;;;;;;;;;;;14.60;95.80;;;;;;4960290;28;19933;-83
2022/04/24 09:16:50;;;;;;;;;;;14.70;95.80;;;;;;4987516;28;19921;-85
2022/04/24 09:19:21;;;;;;;;;;;14.80;96.30;;;;;;4986081;28;19929;-83
2022/04/24 09:22:01;;;;;;;;;;;15.00;96.30;;;;;;4995840;28;19925;-83
2022/04/24 09:24:43;;;;;;;;;;;14.90;96.40;;;;;;4984355;28;19933;-84
2022/04/24 09:27:32;;;;;;;;;;;15.00;96.10;;;;;;4999104;28;19940;-84
2022/04/24 09:30:10;;;;;;;;;;;15.10;96.40;;;;;;4997357;28;19922;-83
2022/04/24 09:32:47;;;;;;;;;;;15.30;96.00;;;;;;4996873;28;19930;-84
2022/04/24 09:35:28;;;;;;;;;;;14.60;95.30;;;;;;4965778;28;19927;-83
2022/04/24 09:38:05;;;;;;;;;;;15.20;95.60;;;;;;4990907;28;19930;-83
2022/04/24 09:40:37;;;;;;;;;;;15.40;95.30;;;;;;5009708;28;19925;-86
2022/04/24 09:43:13;;;;;;;;;;;15.50;95.40;;;;;;4979070;28;19927;-82
2022/04/24 09:45:46;;;;;;;;;;;17.00;95.60;;;;;;5006297;28;19933;-82
2022/04/24 09:48:18;;;;;;;;;;;15.50;95.60;;;;;;5008552;28;20308;-82
2022/04/24 09:50:50;;;;;;;;;;;15.60;95.30;;;;;;4992952;28;19926;-82
2022/04/24 09:53:20;;;;;;;;;;;15.70;94.60;;;;;;5008322;28;20032;-82
2022/04/24 09:55:51;;;;;;;;;;;15.60;94.40;;;;;;5035364;28;19945;-84
2022/04/24 09:58:22;;;;;;;;;;;15.60;94.40;;;;;;5034290;28;19925;-82
2022/04/24 10:00:52;;;;;;;;;;;15.70;94.20;;;;;;5001872;28;19940;-83
2022/04/24 10:03:25;;;;;;;;;;;15.70;94.00;;;;;;4995628;28;20459;-83
2022/04/24 10:05:53;;;;;;;;;;;15.90;94.10;;;;;;5008355;28;19930;-83
2022/04/24 10:08:28;;;;;;;;;;;15.90;93.80;;;;;;5034319;28;19921;-80
2022/04/24 10:11:01;;;;;;;;;;;16.10;93.80;;;;;;4994000;28;19941;-81
2022/04/24 10:13:30;;;;;;;;;;;16.10;93.80;;;;;;4997025;28;19932;-81
2022/04/24 10:16:24;;;;;;;;;;;16.10;93.70;;;;;;5008617;28;19935;-83
2022/04/24 10:19:05;;;;;;;;;;;16.20;93.50;;;;;;5037042;28;19930;-83
2022/04/24 10:21:59;;;;;;;;;;;16.40;93.10;;;;;;5015567;28;19931;-84
2022/04/24 10:24:41;;;;;;;;;;;16.40;93.20;;;;;;5012574;28;19934;-83
2022/04/24 10:27:12;;;;;;;;;;;16.60;93.40;;;;;;4999319;28;19925;-83
2022/04/24 10:29:48;;;;;;;;;;;17.00;93.10;;;;;;5013830;28;19937;-82
2022/04/24 10:32:30;;;;;;;;;;;16.90;92.30;;;;;;5012725;28;19936;-83
2022/04/24 10:35:00;;;;;;;;;;;16.90;91.60;;;;;;4996935;28;19929;-83
2022/04/24 10:37:31;;;;;;;;;;;17.00;91.20;;;;;;5023058;28;19936;-83
2022/04/24 10:40:00;;;;;;;;;;;17.10;91.40;;;;;;5005695;28;19939;-83
2022/04/24 10:42:38;;;;;;;;;;;17.10;91.60;;;;;;4979981;28;19936;-83
2022/04/24 10:45:14;;;;;;;;;;;17.30;91.50;;;;;;5037617;28;19936;-82
2022/04/24 10:47:45;;;;;;;;;;;17.30;91.60;;;;;;5037669;28;19937;-82
2022/04/24 10:50:14;;;;;;;;;;;17.40;90.90;;;;;;5040942;28;19944;-82
2022/04/24 10:52:43;;;;;;;;;;;17.60;91.30;;;;;;5028428;28;19928;-83
2022/04/24 10:55:12;;;;;;;;;;;17.90;91.00;;;;;;5011498;28;19930;-83
2022/04/24 10:57:45;;;;;;;;;;;17.70;90.50;;;;;;5035051;28;19930;-83
2022/04/24 11:00:22;;;;;;;;;;;18.90;89.80;;;;;;5041522;28;19931;-82
2022/04/24 11:02:52;;;;;;;;;;;17.30;87.20;;;;;;5030140;28;20387;-81
2022/04/24 11:05:26;;;;;;;;;;;17.80;88.40;;;;;;5007180;28;19925;-83
2022/04/24 11:08:02;;;;;;;;;;;17.70;88.10;;;;;;4991477;28;20180;-83
2022/04/24 11:10:37;;;;;;;;;;;17.90;88.40;;;;;;5005924;28;19929;-84
2022/04/24 11:13:18;;;;;;;;;;;17.40;88.70;;;;;;5014678;28;19929;-83
2022/04/24 11:15:47;;;;;;;;;;;18.30;87.30;;;;;;4999367;28;19945;-84
2022/04/24 11:18:25;;;;;;;;;;;18.50;85.70;;;;;;5003392;28;19935;-82
2022/04/24 11:21:04;;;;;;;;;;;18.60;83.70;;;;;;5008291;28;19956;-82
2022/04/24 11:23:35;;;;;;;;;;;18.40;84.20;;;;;;5028398;28;19932;-82
2022/04/24 11:26:12;;;;;;;;;;;18.40;84.00;;;;;;5024770;28;19925;-83
2022/04/24 11:28:48;;;;;;;;;;;18.30;85.20;;;;;;5009623;28;19929;-83
2022/04/24 11:31:20;;;;;;;;;;;18.30;85.20;;;;;;5027527;28;19925;-84
2022/04/24 11:33:50;;;;;;;;;;;18.50;83.40;;;;;;5007823;28;19929;-83
2022/04/24 11:36:26;;;;;;;;;;;18.90;83.30;;;;;;5028098;28;19925;-82
2022/04/24 11:38:57;;;;;;;;;;;18.80;83.70;;;;;;5013503;28;19929;-82
2022/04/24 11:41:27;;;;;;;;;;;18.90;83.00;;;;;;5021238;28;20341;-82
2022/04/24 11:44:00;;;;;;;;;;;19.10;82.50;;;;;;5011074;28;19935;-84
2022/04/24 11:52:57;;;;;;;;;;;19.40;81.50;;;;;;5026350;28;20432;-82
2022/04/24 11:56:01;;;;;;;;;;;19.30;80.20;;;;;;5043452;28;19935;-82
2022/04/24 11:58:16;;;;;;;;;;;18.50;79.30;;;;;;5028642;28;19933;-83
2022/04/24 12:00:51;;;;;;;;;;;19.10;80.60;;;;;;5028393;28;19939;-84
2022/04/24 12:03:22;;;;;;;;;;;19.20;80.20;;;;;;5030650;28;19924;-82
2022/04/24 12:06:05;;;;;;;;;;;19.50;79.80;;;;;;5030873;28;19938;-82
2022/04/24 12:08:46;;;;;;;;;;;18.60;79.50;;;;;;5043628;28;19925;-82
2022/04/24 12:11:28;;;;;;;;;;;20.00;78.60;;;;;;5023635;28;19925;-81
2022/04/24 12:14:07;;;;;;;;;;;19.80;77.10;;;;;;5012722;28;19929;-82
2022/04/24 12:16:36;;;;;;;;;;;19.70;78.00;;;;;;5008045;28;19929;-81
2022/04/24 12:19:08;;;;;;;;;;;19.80;77.10;;;;;;5027726;28;19925;-84
2022/04/24 12:21:43;;;;;;;;;;;20.80;78.60;;;;;;5039505;28;19931;-82
2022/04/24 12:24:14;;;;;;;;;;;19.60;78.60;;;;;;5010023;28;19939;-81
2022/04/24 12:26:49;;;;;;;;;;;19.70;78.90;;;;;;5011596;28;20289;-81
2022/04/24 12:29:17;;;;;;;;;;;19.30;76.80;;;;;;5026367;28;19929;-81
2022/04/24 12:31:47;;;;;;;;;;;19.40;77.80;;;;;;5027508;28;19936;-82
2022/04/24 12:34:16;;;;;;;;;;;19.60;78.30;;;;;;5043776;28;19929;-82
2022/04/24 12:36:48;;;;;;;;;;;19.90;76.70;;;;;;5041563;28;19929;-83
2022/04/24 12:39:25;;;;;;;;;;;20.00;77.20;;;;;;5040660;28;19925;-83
2022/04/24 12:41:56;;;;;;;;;;;20.60;74.90;;;;;;5042351;28;19933;-81
2022/04/24 12:44:26;;;;;;;;;;;20.30;75.90;;;;;;5010931;28;19933;-82
2022/04/24 12:47:02;;;;;;;;;;;20.20;76.40;;;;;;5027403;28;19925;-82
2022/04/24 12:49:32;;;;;;;;;;;20.00;76.30;;;;;;4982907;28;19950;-82
2022/04/24 12:52:02;;;;;;;;;;;19.90;77.90;;;;;;4982221;28;20009;-85
2022/04/24 12:54:32;;;;;;;;;;;19.90;77.70;;;;;;4981390;28;20250;-82
2022/04/24 12:57:11;;;;;;;;;;;20.00;78.30;;;;;;4996683;28;19934;-84
2022/04/24 12:59:42;;;;;;;;;;;20.30;76.70;;;;;;4982079;28;19940;-83
2022/04/24 13:02:16;;;;;;;;;;;20.10;76.20;;;;;;4995530;28;19953;-83
2022/04/24 13:04:52;;;;;;;;;;;20.30;76.40;;;;;;4980913;28;19927;-83
2022/04/24 13:07:22;;;;;;;;;;;20.40;78.00;;;;;;4964735;28;19952;-83
2022/04/24 13:09:50;;;;;;;;;;;20.50;77.30;;;;;;4983448;28;19930;-84
2022/04/24 13:12:19;;;;;;;;;;;20.70;76.40;;;;;;4967578;28;20498;-84
2022/04/24 13:14:51;;;;;;;;;;;20.70;75.70;;;;;;4967026;28;19937;-84
2022/04/24 13:21:42;;;;;;;;;;;;;;;;;;;;;
2022/04/24 13:24:49;;;;;;;;;;;20.50;75.60;;;;;;4922856;29;19930;-85
2022/04/24 13:31:27;;;;;;;;;;;20.70;74.70;;;;;;4865516;29;19990;-85
2022/04/24 13:34:18;;;;;;;;;;;20.10;74.90;;;;;;4858402;29;19947;-84
2022/04/24 13:41:20;;;;;;;;;;;20.20;77.50;;;;;;4876356;29;19932;-86
2022/04/24 13:45:02;;;;;;;;;;;21.70;76.70;;;;;;4859366;29;19935;-86
2022/04/24 13:48:47;;;;;;;;;;;20.50;74.00;;;;;;4547420;29;10000414;-86
2022/04/24 13:51:52;;;;;;;;;;;21.00;75.70;;;;;;4896209;29;19932;-86
2022/04/24 13:54:34;;;;;;;;;;;20.90;72.50;;;;;;4959429;28;19933;-86
2022/04/24 13:57:46;;;;;;;;;;;20.60;76.10;;;;;;4985465;28;19929;-85
2022/04/24 14:01:10;;;;;;;;;;;20.80;75.00;;;;;;4903078;29;20466;-86
2022/04/24 14:04:14;;;;;;;;;;;;;;;;;;;;;
2022/04/24 14:06:52;;;;;;;;;;;19.50;74.00;;;;;;4969512;29;20058;-86
2022/04/24 14:10:51;;;;;;;;;;;19.60;76.60;;;;;;4953048;29;19926;-86
2022/04/24 14:14:11;;;;;;;;;;;;;;;;;;;;;
2022/04/24 14:16:41;;;;;;;;;;;20.20;75.30;;;;;;4900713;29;19969;-85
2022/04/24 14:19:13;;;;;;;;;;;19.90;76.30;;;;;;4968928;29;19930;-87
2022/04/24 14:29:08;;;;;;;;;;;18.30;76.00;;;;;;4962876;29;19927;-87
2022/04/24 14:36:25;;;;;;;;;;;;;;;;;;;;;
2022/04/24 14:39:51;;;;;;;;;;;19.90;75.30;;;;;;4954222;29;19917;-87
2022/04/24 14:42:56;;;;;;;;;;;19.20;71.30;;;;;;4925357;29;19927;-88
2022/04/24 14:58:02;;;;;;;;;;;19.60;74.30;;;;;;4983561;28;19929;-88
2022/04/24 15:00:34;;;;;;;;;;;19.20;74.80;;;;;;4978952;28;19936;-85
2022/04/24 15:03:04;;;;;;;;;;;18.80;74.40;;;;;;4990780;28;19929;-86
2022/04/24 15:05:33;;;;;;;;;;;18.00;73.60;;;;;;4983886;28;19957;-85
2022/04/24 15:08:01;;;;;;;;;;;18.60;74.50;;;;;;4988356;28;19936;-86
2022/04/24 15:10:41;;;;;;;;;;;18.50;75.10;;;;;;5016373;28;19929;-88
2022/04/24 15:13:10;;;;;;;;;;;18.50;75.60;;;;;;4990308;28;19934;-87
2022/04/24 15:15:42;;;;;;;;;;;18.40;76.00;;;;;;4996355;28;19934;-87
2022/04/24 15:18:11;;;;;;;;;;;18.40;75.80;;;;;;4986685;28;19934;-87
2022/04/24 15:20:48;;;;;;;;;;;18.40;75.90;;;;;;4984091;28;19925;-87
2022/04/24 15:23:19;;;;;;;;;;;18.30;76.10;;;;;;4998329;28;19937;-86
2022/04/24 15:25:49;;;;;;;;;;;18.20;76.10;;;;;;5000506;28;19926;-87
2022/04/24 15:28:17;;;;;;;;;;;17.60;76.40;;;;;;4986892;28;20301;-87
2022/04/24 15:30:46;;;;;;;;;;;18.10;76.40;;;;;;5007244;28;20397;-88
2022/04/24 15:33:21;;;;;;;;;;;18.00;76.10;;;;;;4972092;28;20551;-88
2022/04/24 15:35:49;;;;;;;;;;;18.20;76.20;;;;;;5007075;28;19934;-86
2022/04/24 15:38:26;;;;;;;;;;;18.00;76.30;;;;;;4990195;28;19937;-86
2022/04/24 15:40:59;;;;;;;;;;;18.00;76.30;;;;;;4997586;28;19925;-87
2022/04/24 15:43:27;;;;;;;;;;;18.30;75.80;;;;;;4971048;28;19930;-85
2022/04/24 15:46:01;;;;;;;;;;;18.70;74.60;;;;;;4978198;28;19933;-87
2022/04/24 15:48:36;;;;;;;;;;;19.20;73.70;;;;;;5009056;28;19929;-86